createdAt,value
2023-11-18T00:01:30.070Z,3.35
2023-11-18T00:03:56.765Z,3.10
2023-11-18T00:06:23.356Z,3.13
2023-11-18T00:08:49.876Z,3.65
2023-11-18T00:11:16.743Z,3.30
2023-11-18T00:13:43.312Z,4.50
2023-11-18T00:16:09.897Z,4.10
2023-11-18T00:18:36.469Z,4.50
2023-11-18T00:21:02.971Z,3.75
2023-11-18T00:23:29.462Z,3.83
2023-11-18T00:25:56.041Z,3.42
2023-11-18T00:28:22.573Z,2.22
2023-11-18T00:30:49.103Z,3.38
2023-11-18T00:33:15.887Z,1.88
2023-11-18T00:35:42.526Z,4.15
2023-11-18T00:38:09.020Z,3.80
2023-11-18T00:40:35.569Z,2.92
2023-11-18T00:43:02.069Z,3.95
2023-11-18T00:45:28.585Z,3.90
2023-11-18T00:47:55.362Z,3.30
2023-11-18T00:50:22.042Z,3.95
2023-11-18T00:52:48.589Z,3.22
2023-11-18T00:55:15.285Z,3.17
2023-11-18T00:57:41.752Z,3.97
2023-11-18T01:00:08.235Z,5.22
2023-11-18T01:02:34.789Z,4.13
2023-11-18T01:05:01.299Z,4.85
2023-11-18T01:07:27.822Z,3.25
2023-11-18T01:09:54.414Z,4.72
2023-11-18T01:12:20.864Z,4.85
2023-11-18T01:14:47.442Z,4.75
2023-11-18T01:17:13.976Z,5.28
2023-11-18T01:19:41.088Z,4.63
2023-11-18T01:22:07.743Z,4.65
2023-11-18T01:24:35.206Z,4.15
2023-11-18T01:27:01.769Z,5.75
2023-11-18T01:29:28.338Z,5.90
2023-11-18T01:31:55.055Z,5.10
2023-11-18T01:34:21.664Z,5.25
2023-11-18T01:36:48.244Z,4.82
2023-11-18T01:39:14.891Z,7.03
2023-11-18T01:41:41.397Z,5.35
2023-11-18T01:44:07.929Z,7.38
2023-11-18T01:46:34.526Z,5.95
2023-11-18T01:49:01.058Z,6.68
2023-11-18T01:51:27.521Z,6.72
2023-11-18T01:53:54.092Z,8.68
2023-11-18T01:56:20.597Z,7.55
2023-11-18T01:58:47.079Z,7.95
2023-11-18T02:01:13.702Z,7.95
2023-11-18T02:03:40.271Z,7.68
2023-11-18T02:06:06.830Z,6.32
2023-11-18T02:08:33.701Z,8.27
2023-11-18T02:11:00.223Z,5.82
2023-11-18T02:13:27.030Z,6.35
2023-11-18T02:15:56.652Z,8.70
2023-11-18T02:18:23.347Z,8.27
2023-11-18T02:21:09.861Z,7.47
2023-11-18T02:23:36.241Z,7.32
2023-11-18T02:26:02.782Z,8.45
2023-11-18T02:28:29.465Z,7.35
2023-11-18T02:30:55.952Z,7.03
2023-11-18T02:33:22.568Z,6.93
2023-11-18T02:35:49.136Z,7.03
2023-11-18T02:38:15.621Z,5.93
2023-11-18T02:40:42.212Z,7.22
2023-11-18T02:43:08.788Z,5.85
2023-11-18T02:45:35.272Z,8.02
2023-11-18T02:48:01.851Z,6.88
2023-11-18T02:50:28.472Z,6.45
2023-11-18T02:52:54.984Z,7.35
2023-11-18T02:55:21.611Z,6.85
2023-11-18T02:57:48.181Z,6.95
2023-11-18T03:00:14.681Z,6.20
2023-11-18T03:02:41.415Z,5.47
2023-11-18T03:05:08.063Z,4.90
2023-11-18T03:07:34.621Z,6.70
2023-11-18T03:10:01.158Z,5.57
2023-11-18T03:12:27.884Z,5.70
2023-11-18T03:14:54.373Z,4.50
2023-11-18T03:17:20.886Z,5.55
2023-11-18T03:19:47.469Z,4.95
2023-11-18T03:22:13.987Z,3.65
2023-11-18T03:24:40.475Z,5.57
2023-11-18T03:27:07.115Z,4.53
2023-11-18T03:29:33.609Z,5.10
2023-11-18T03:32:00.214Z,3.45
2023-11-18T03:34:26.923Z,4.50
2023-11-18T03:36:53.389Z,4.30
2023-11-18T03:39:19.899Z,3.80
2023-11-18T03:41:46.531Z,4.57
2023-11-18T03:44:13.037Z,5.22
2023-11-18T03:46:39.642Z,4.68
2023-11-18T03:49:06.245Z,5.65
2023-11-18T03:51:32.740Z,4.22
2023-11-18T03:53:59.281Z,5.03
2023-11-18T03:56:25.871Z,5.45
2023-11-18T03:58:52.351Z,4.30
2023-11-18T04:01:18.902Z,3.45
2023-11-18T04:03:45.562Z,5.85
2023-11-18T04:06:12.156Z,3.83
2023-11-18T04:08:38.624Z,4.55
2023-11-18T04:11:05.228Z,4.90
2023-11-18T04:13:31.707Z,5.15
2023-11-18T04:15:58.206Z,4.68
2023-11-18T04:18:24.801Z,4.38
2023-11-18T04:20:51.925Z,4.28
2023-11-18T04:23:18.498Z,4.60
2023-11-18T04:25:45.115Z,3.20
2023-11-18T04:28:11.654Z,4.72
2023-11-18T04:30:38.213Z,4.50
2023-11-18T04:33:04.851Z,3.88
2023-11-18T04:35:31.328Z,8.80
2023-11-18T04:37:57.892Z,4.45
2023-11-18T04:40:24.588Z,3.65
2023-11-18T04:42:51.155Z,3.92
2023-11-18T04:45:17.656Z,4.35
2023-11-18T04:47:44.526Z,3.55
2023-11-18T04:50:11.299Z,3.92
2023-11-18T04:52:37.985Z,4.20
2023-11-18T04:55:04.660Z,3.28
2023-11-18T04:57:31.367Z,4.22
2023-11-18T04:59:57.867Z,5.20
2023-11-18T05:02:24.548Z,4.97
2023-11-18T05:04:51.115Z,4.07
2023-11-18T05:07:17.669Z,4.03
2023-11-18T05:09:44.327Z,4.20
2023-11-18T05:12:10.817Z,4.53
2023-11-18T05:14:37.286Z,4.78
2023-11-18T05:17:03.956Z,4.07
2023-11-18T05:19:30.491Z,3.65
2023-11-18T05:21:56.946Z,4.70
2023-11-18T05:24:23.512Z,5.13
2023-11-18T05:26:50.669Z,4.70
2023-11-18T05:29:17.149Z,4.80
2023-11-18T05:31:43.929Z,4.88
2023-11-18T05:34:10.604Z,4.38
2023-11-18T05:36:37.283Z,2.42
2023-11-18T05:39:04.496Z,3.08
2023-11-18T05:41:31.840Z,3.80
2023-11-18T05:43:58.704Z,3.60
2023-11-18T05:46:25.735Z,4.25
2023-11-18T05:48:52.959Z,4.55
2023-11-18T05:51:20.248Z,4.95
2023-11-18T05:53:47.206Z,3.65
2023-11-18T05:56:13.954Z,4.53
2023-11-18T05:58:40.592Z,2.95
2023-11-18T06:01:07.722Z,2.92
2023-11-18T06:03:34.977Z,4.65
2023-11-18T06:06:01.504Z,4.43
2023-11-18T06:08:28.060Z,3.55
2023-11-18T06:10:54.594Z,5.07
2023-11-18T06:13:21.092Z,4.22
2023-11-18T06:15:47.698Z,3.58
2023-11-18T06:18:14.251Z,3.67
2023-11-18T06:20:40.848Z,3.25
2023-11-18T06:23:07.518Z,3.88
2023-11-18T06:25:34.105Z,4.32
2023-11-18T06:28:00.714Z,5.28
2023-11-18T06:30:27.380Z,6.30
2023-11-18T06:32:53.914Z,3.83
2023-11-18T06:35:20.453Z,4.05
2023-11-18T06:37:47.140Z,4.30
2023-11-18T06:40:13.651Z,4.60
2023-11-18T06:42:40.094Z,5.10
2023-11-18T06:45:06.682Z,4.25
2023-11-18T06:47:33.384Z,4.43
2023-11-18T06:49:59.974Z,4.47
2023-11-18T06:52:26.666Z,5.75
2023-11-18T06:54:53.234Z,5.97
2023-11-18T06:57:19.717Z,4.90
2023-11-18T06:59:46.341Z,4.10
2023-11-18T07:02:12.978Z,4.82
2023-11-18T07:04:39.615Z,4.68
2023-11-18T07:07:06.418Z,3.10
2023-11-18T07:09:32.924Z,4.97
2023-11-18T07:11:59.418Z,3.95
2023-11-18T07:14:26.145Z,5.15
2023-11-18T07:16:52.672Z,3.97
2023-11-18T07:19:19.198Z,5.20
2023-11-18T07:21:45.860Z,5.93
2023-11-18T07:24:12.410Z,4.35
2023-11-18T07:26:38.894Z,5.43
2023-11-18T07:29:05.513Z,8.05
2023-11-18T07:31:32.060Z,10.57
2023-11-18T07:33:58.530Z,9.20
2023-11-18T07:36:25.204Z,7.05
2023-11-18T07:38:51.727Z,4.88
2023-11-18T07:41:18.213Z,5.13
2023-11-18T07:43:44.948Z,3.83
2023-11-18T07:46:11.508Z,4.40
2023-11-18T07:48:38.000Z,3.92
2023-11-18T07:51:04.616Z,3.08
2023-11-18T07:53:31.134Z,5.05
2023-11-18T07:55:57.641Z,4.03
2023-11-18T07:58:24.521Z,3.67
2023-11-18T08:00:51.106Z,4.40
2023-11-18T08:03:17.650Z,4.22
2023-11-18T08:05:44.363Z,2.13
2023-11-18T08:08:10.890Z,4.88
2023-11-18T08:10:37.507Z,4.95
2023-11-18T08:13:04.186Z,4.95
2023-11-18T08:15:30.777Z,6.75
2023-11-18T08:17:57.331Z,4.63
2023-11-18T08:20:24.019Z,4.90
2023-11-18T08:22:50.504Z,4.90
2023-11-18T08:25:17.016Z,5.15
2023-11-18T08:27:43.573Z,5.25
2023-11-18T08:30:10.072Z,4.32
2023-11-18T08:32:36.708Z,3.22
2023-11-18T08:35:03.361Z,4.38
2023-11-18T08:37:30.612Z,3.75
2023-11-18T08:39:57.117Z,3.88
2023-11-18T08:42:23.821Z,5.05
2023-11-18T08:44:50.378Z,4.68
2023-11-18T08:47:16.871Z,4.05
2023-11-18T08:49:43.499Z,3.45
2023-11-18T08:52:09.990Z,4.13
2023-11-18T08:54:36.522Z,3.63
2023-11-18T08:57:03.146Z,3.78
2023-11-18T08:59:29.687Z,5.93
2023-11-18T09:01:56.288Z,5.90
2023-11-18T09:04:23.078Z,4.10
2023-11-18T09:06:49.599Z,3.67
2023-11-18T09:09:16.090Z,3.13
2023-11-18T09:11:42.685Z,3.47
2023-11-18T09:14:09.290Z,3.70
2023-11-18T09:16:35.826Z,3.50
2023-11-18T09:19:02.409Z,2.47
2023-11-18T09:21:28.917Z,3.17
2023-11-18T09:23:55.570Z,3.55
2023-11-18T09:26:22.213Z,3.70
2023-11-18T09:28:48.881Z,2.63
2023-11-18T09:31:15.402Z,3.28
2023-11-18T09:33:42.016Z,3.40
2023-11-18T09:36:08.531Z,3.55
2023-11-18T09:38:35.197Z,3.17
2023-11-18T09:41:01.832Z,3.70
2023-11-18T09:43:28.389Z,2.83
2023-11-18T09:45:54.868Z,3.03
2023-11-18T09:48:21.496Z,2.35
2023-11-18T09:50:48.040Z,2.35
2023-11-18T09:53:14.591Z,3.15
2023-11-18T09:55:41.288Z,2.35
2023-11-18T09:58:07.847Z,3.22
2023-11-18T10:00:34.499Z,2.65
2023-11-18T10:03:01.464Z,3.03
2023-11-18T10:05:28.939Z,4.35
2023-11-18T10:07:56.240Z,3.58
2023-11-18T10:10:22.913Z,3.60
2023-11-18T10:12:49.437Z,2.53
2023-11-18T10:15:15.914Z,2.40
2023-11-18T10:17:42.486Z,2.47
2023-11-18T10:20:09.012Z,2.95
2023-11-18T10:22:35.542Z,2.03
2023-11-18T10:25:02.266Z,2.60
2023-11-18T10:27:30.812Z,2.72
2023-11-18T10:29:57.290Z,2.17
2023-11-18T10:32:23.840Z,3.33
2023-11-18T10:34:50.382Z,2.50
2023-11-18T10:37:16.862Z,2.35
2023-11-18T10:39:43.471Z,2.80
2023-11-18T10:42:09.930Z,3.30
2023-11-18T10:44:36.396Z,3.45
2023-11-18T10:47:02.975Z,3.72
2023-11-18T10:49:29.488Z,3.05
2023-11-18T10:51:56.044Z,3.72
2023-11-18T10:54:22.599Z,3.15
2023-11-18T10:56:49.146Z,3.03
2023-11-18T10:59:15.681Z,4.07
2023-11-18T11:01:42.276Z,3.85
2023-11-18T11:04:09.184Z,4.82
2023-11-18T11:06:35.644Z,4.78
2023-11-18T11:09:02.227Z,3.65
2023-11-18T11:11:28.765Z,3.72
2023-11-18T11:13:55.247Z,4.05
2023-11-18T11:16:21.921Z,4.10
2023-11-18T11:18:48.444Z,3.53
2023-11-18T11:21:14.967Z,4.60
2023-11-18T11:23:41.599Z,3.78
2023-11-18T11:26:08.161Z,3.80
2023-11-18T11:28:34.681Z,5.10
2023-11-18T11:31:01.322Z,3.85
2023-11-18T11:33:27.811Z,4.00
2023-11-18T11:35:54.358Z,4.18
2023-11-18T11:38:21.020Z,3.67
2023-11-18T11:40:47.647Z,3.80
2023-11-18T11:43:14.355Z,3.45
2023-11-18T11:45:40.910Z,4.03
2023-11-18T11:48:07.574Z,4.43
2023-11-18T11:50:34.262Z,3.60
2023-11-18T11:53:01.056Z,3.63
2023-11-18T11:55:27.765Z,3.58
2023-11-18T11:57:54.290Z,4.13
2023-11-18T12:00:20.868Z,4.25
2023-11-18T12:02:47.436Z,4.53
2023-11-18T12:05:14.388Z,4.15
2023-11-18T12:07:41.130Z,5.05
2023-11-18T12:10:07.761Z,4.55
2023-11-18T12:12:34.304Z,4.55
2023-11-18T12:15:00.901Z,4.13
2023-11-18T12:17:27.459Z,5.05
2023-11-18T12:19:53.949Z,4.40
2023-11-18T12:22:20.534Z,4.53
2023-11-18T12:24:47.049Z,3.80
2023-11-18T12:27:13.748Z,4.75
2023-11-18T12:29:40.301Z,4.55
2023-11-18T12:32:06.792Z,4.47
2023-11-18T12:34:33.288Z,5.25
2023-11-18T12:36:59.892Z,3.75
2023-11-18T12:39:26.412Z,3.92
2023-11-18T12:41:52.922Z,4.85
2023-11-18T12:44:19.559Z,4.70
2023-11-18T12:46:46.341Z,5.20
2023-11-18T12:49:12.918Z,5.00
2023-11-18T12:51:39.500Z,4.97
2023-11-18T12:54:06.038Z,4.68
2023-11-18T12:56:32.578Z,5.47
2023-11-18T12:58:59.287Z,4.18
2023-11-18T13:01:25.871Z,4.28
2023-11-18T13:03:52.476Z,4.50
2023-11-18T13:06:20.312Z,5.72
2023-11-18T13:08:47.351Z,5.53
2023-11-18T13:11:13.900Z,5.10
2023-11-18T13:13:40.592Z,6.00
2023-11-18T13:16:07.196Z,5.90
2023-11-18T13:18:33.729Z,6.80
2023-11-18T13:21:00.330Z,5.25
2023-11-18T13:23:26.906Z,9.00
2023-11-18T13:25:53.439Z,5.88
2023-11-18T13:28:20.023Z,7.30
2023-11-18T13:30:46.540Z,6.57
2023-11-18T13:33:13.157Z,6.32
2023-11-18T13:35:39.765Z,5.57
2023-11-18T13:38:06.368Z,6.22
2023-11-18T13:40:33.084Z,5.97
2023-11-18T13:42:59.662Z,8.00
2023-11-18T13:45:33.788Z,7.38
2023-11-18T13:48:04.807Z,7.75
2023-11-18T13:50:31.519Z,8.30
2023-11-18T13:52:58.114Z,11.10
2023-11-18T13:55:24.792Z,11.63
2023-11-18T13:57:51.269Z,11.50
2023-11-18T14:00:17.772Z,10.88
2023-11-18T14:02:44.556Z,10.80
2023-11-18T14:05:11.248Z,9.88
2023-11-18T14:07:37.794Z,10.88
2023-11-18T14:10:04.352Z,10.45
2023-11-18T14:12:30.937Z,10.20
2023-11-18T14:14:57.427Z,11.90
2023-11-18T14:17:24.037Z,13.65
2023-11-18T14:19:50.590Z,11.98
2023-11-18T14:22:17.053Z,13.75
2023-11-18T14:24:43.723Z,12.68
2023-11-18T14:27:10.181Z,13.60
2023-11-18T14:29:36.701Z,13.45
2023-11-18T14:32:03.460Z,10.25
2023-11-18T14:34:29.928Z,10.98
2023-11-18T14:36:56.376Z,9.73
2023-11-18T14:39:22.954Z,15.85
2023-11-18T14:41:49.561Z,20.08
2023-11-18T14:44:16.253Z,13.85
2023-11-18T14:46:42.895Z,14.52
2023-11-18T14:49:09.475Z,17.15
2023-11-18T14:51:35.942Z,16.15
2023-11-18T14:54:02.521Z,16.42
2023-11-18T14:56:29.328Z,14.73
2023-11-18T14:58:55.972Z,15.15
2023-11-18T15:01:22.703Z,13.93
2023-11-18T15:03:49.417Z,12.13
2023-11-18T15:06:16.408Z,15.00
2023-11-18T15:08:46.460Z,13.80
2023-11-18T15:11:14.427Z,14.93
2023-11-18T15:13:42.572Z,17.70
2023-11-18T15:16:10.553Z,16.42
2023-11-18T15:18:38.499Z,16.17
2023-11-18T15:21:06.447Z,17.38
2023-11-18T15:23:34.500Z,16.17
2023-11-18T15:26:01.514Z,16.38
2023-11-18T15:28:28.101Z,15.38
2023-11-18T15:30:54.784Z,15.50
2023-11-18T15:33:21.420Z,14.45
2023-11-18T15:35:48.082Z,13.02
2023-11-18T15:38:14.814Z,13.95
2023-11-18T15:40:41.467Z,13.05
2023-11-18T15:43:08.047Z,13.70
2023-11-18T15:45:34.862Z,13.15
2023-11-18T15:48:01.553Z,14.43
2023-11-18T15:50:28.178Z,12.00
2023-11-18T15:52:54.929Z,12.75
2023-11-18T15:55:21.455Z,13.85
2023-11-18T15:57:47.962Z,12.45
2023-11-18T16:00:14.563Z,13.05
2023-11-18T16:02:41.265Z,12.07
2023-11-18T16:05:07.960Z,11.48
2023-11-18T16:07:34.651Z,11.43
2023-11-18T16:10:01.140Z,12.27
2023-11-18T16:12:27.700Z,15.38
2023-11-18T16:14:54.416Z,12.77
2023-11-18T16:17:21.058Z,10.65
2023-11-18T16:19:47.625Z,9.93
2023-11-18T16:22:14.207Z,12.93
2023-11-18T16:24:40.811Z,11.77
2023-11-18T16:27:07.291Z,11.90
2023-11-18T16:29:33.918Z,9.95
2023-11-18T16:32:00.507Z,11.68
2023-11-18T16:34:27.033Z,11.30
2023-11-18T16:36:53.638Z,12.90
2023-11-18T16:39:20.356Z,11.98
2023-11-18T16:41:46.920Z,11.55
2023-11-18T16:44:13.580Z,14.57
2023-11-18T16:46:40.125Z,12.00
2023-11-18T16:49:06.654Z,15.43
2023-11-18T16:51:33.255Z,13.65
2023-11-18T16:53:59.815Z,16.73
2023-11-18T16:56:26.451Z,17.95
2023-11-18T16:58:53.075Z,18.70
2023-11-18T17:01:19.594Z,20.20
2023-11-18T17:03:46.196Z,18.15
2023-11-18T17:06:12.815Z,20.30
2023-11-18T17:08:39.370Z,22.25
2023-11-18T17:11:05.997Z,19.67
2023-11-18T17:13:32.685Z,26.80
2023-11-18T17:15:59.284Z,28.23
2023-11-18T17:18:25.836Z,30.02
2023-11-18T17:20:52.454Z,28.67
2023-11-18T17:23:18.986Z,26.45
2023-11-18T17:25:45.544Z,23.92
2023-11-18T17:28:13.328Z,31.08
2023-11-18T17:30:40.866Z,35.97
2023-11-18T17:33:07.456Z,35.47
2023-11-18T17:35:34.518Z,33.97
2023-11-18T17:38:01.166Z,35.67
2023-11-18T17:40:27.729Z,36.33
2023-11-18T17:42:55.149Z,34.97
2023-11-18T17:45:21.960Z,33.28
2023-11-18T17:47:48.499Z,35.17
2023-11-18T17:50:15.750Z,34.33
2023-11-18T17:52:42.691Z,33.75
2023-11-18T17:55:09.313Z,36.10
2023-11-18T17:57:35.909Z,39.50
2023-11-18T18:00:02.594Z,37.47
2023-11-18T18:02:31.360Z,38.60
2023-11-18T18:04:58.031Z,34.63
2023-11-18T18:07:24.558Z,36.55
2023-11-18T18:09:51.136Z,38.10
2023-11-18T18:12:17.755Z,34.30
2023-11-18T18:14:44.273Z,35.17
2023-11-18T18:17:10.865Z,34.05
2023-11-18T18:19:37.439Z,35.15
2023-11-18T18:22:03.978Z,32.65
2023-11-18T18:24:30.550Z,35.85
2023-11-18T18:26:57.139Z,31.67
2023-11-18T18:29:23.648Z,33.88
2023-11-18T18:31:50.321Z,35.72
2023-11-18T18:34:16.876Z,34.90
2023-11-18T18:36:43.423Z,34.95
2023-11-18T18:39:09.997Z,34.35
2023-11-18T18:41:36.739Z,32.90
2023-11-18T18:44:03.464Z,35.17
2023-11-18T18:46:30.035Z,35.38
2023-11-18T18:48:56.724Z,35.58
2023-11-18T18:51:23.352Z,32.60
2023-11-18T18:53:49.934Z,33.65
2023-11-18T18:56:16.662Z,33.30
2023-11-18T18:58:43.210Z,32.13
2023-11-18T19:01:09.802Z,29.13
2023-11-18T19:03:36.624Z,28.02
2023-11-18T19:06:03.202Z,31.45
2023-11-18T19:08:29.696Z,29.25
2023-11-18T19:10:56.328Z,30.38
2023-11-18T19:13:22.814Z,28.88
2023-11-18T19:15:49.418Z,30.38
2023-11-18T19:18:16.063Z,27.50
2023-11-18T19:20:42.676Z,26.15
2023-11-18T19:23:09.230Z,30.30
2023-11-18T19:25:35.811Z,30.45
2023-11-18T19:28:02.361Z,28.52
2023-11-18T19:30:28.866Z,28.83
2023-11-18T19:32:55.491Z,30.65
2023-11-18T19:35:22.077Z,31.02
2023-11-18T19:37:48.596Z,33.28
2023-11-18T19:40:15.516Z,31.10
2023-11-18T19:42:42.063Z,27.08
2023-11-18T19:45:08.547Z,32.20
2023-11-18T19:47:35.545Z,32.53
2023-11-18T19:50:02.812Z,34.17
2023-11-18T19:52:29.833Z,30.30
2023-11-18T19:54:56.412Z,24.85
2023-11-18T19:57:22.867Z,29.30
2023-11-18T19:59:49.398Z,34.58
2023-11-18T20:02:16.063Z,33.58
2023-11-18T20:04:42.581Z,34.28
2023-11-18T20:07:09.326Z,34.97
2023-11-18T20:09:35.936Z,34.75
2023-11-18T20:12:05.696Z,31.52
2023-11-18T20:14:32.749Z,34.42
2023-11-18T20:16:59.410Z,32.78
2023-11-18T20:19:25.986Z,31.25
2023-11-18T20:21:52.478Z,30.98
2023-11-18T20:24:19.150Z,29.52
2023-11-18T20:26:45.702Z,29.40
2023-11-18T20:29:12.236Z,27.63
2023-11-18T20:31:38.934Z,29.08
2023-11-18T20:34:05.524Z,30.98
2023-11-18T20:36:32.136Z,29.52
2023-11-18T20:38:58.718Z,28.85
2023-11-18T20:41:25.228Z,28.27
2023-11-18T20:43:51.742Z,30.30
2023-11-18T20:46:18.317Z,29.20
2023-11-18T20:48:44.830Z,28.80
2023-11-18T20:51:11.351Z,31.23
2023-11-18T20:53:38.028Z,27.50
2023-11-18T20:56:04.617Z,27.65
2023-11-18T20:58:31.319Z,27.00
2023-11-18T21:00:59.269Z,25.83
2023-11-18T21:03:26.084Z,25.33
2023-11-18T21:05:52.880Z,24.52
2023-11-18T21:08:19.572Z,23.60
2023-11-18T21:10:46.101Z,24.35
2023-11-18T21:13:12.659Z,24.77
2023-11-18T21:15:39.215Z,25.45
2023-11-18T21:18:05.782Z,25.67
2023-11-18T21:20:32.412Z,25.50
2023-11-18T21:22:59.021Z,25.08
2023-11-18T21:25:25.513Z,23.63
2023-11-18T21:27:52.046Z,23.95
2023-11-18T21:30:18.585Z,25.10
2023-11-18T21:32:45.144Z,24.15
2023-11-18T21:35:11.889Z,23.55
2023-11-18T21:37:38.622Z,24.00
2023-11-18T21:40:05.134Z,22.48
2023-11-18T21:42:31.626Z,19.55
2023-11-18T21:44:58.246Z,20.80
2023-11-18T21:47:24.789Z,21.48
2023-11-18T21:49:52.185Z,22.90
2023-11-18T21:52:19.169Z,22.20
2023-11-18T21:54:45.647Z,24.35
2023-11-18T21:57:12.128Z,24.15
2023-11-18T21:59:38.766Z,26.50
2023-11-18T22:02:05.366Z,22.58
2023-11-18T22:04:31.982Z,23.77
2023-11-18T22:06:58.613Z,23.05
2023-11-18T22:09:25.347Z,24.92
2023-11-18T22:11:52.102Z,23.33
2023-11-18T22:14:18.750Z,23.85
2023-11-18T22:16:45.353Z,23.85
2023-11-18T22:19:11.872Z,24.48
2023-11-18T22:21:38.562Z,22.60
2023-11-18T22:24:05.046Z,21.73
2023-11-18T22:26:31.615Z,25.27
2023-11-18T22:28:58.266Z,25.58
2023-11-18T22:31:24.839Z,22.83
2023-11-18T22:33:51.351Z,23.73
2023-11-18T22:36:17.912Z,25.00
2023-11-18T22:38:44.424Z,23.40
2023-11-18T22:41:11.010Z,23.83
2023-11-18T22:43:37.671Z,23.17
2023-11-18T22:46:04.154Z,23.48
2023-11-18T22:48:30.654Z,20.50
2023-11-18T22:50:57.259Z,21.77
2023-11-18T22:53:23.819Z,23.40
2023-11-18T22:55:50.388Z,19.40
2023-11-18T22:58:16.932Z,21.90
2023-11-18T23:00:43.458Z,21.25
2023-11-18T23:03:10.105Z,22.52
2023-11-18T23:05:36.804Z,20.95
2023-11-18T23:08:03.283Z,19.17
2023-11-18T23:10:29.753Z,20.85
2023-11-18T23:12:56.542Z,22.67
2023-11-18T23:15:23.325Z,19.67
2023-11-18T23:17:50.435Z,21.65
2023-11-18T23:20:17.317Z,23.60
2023-11-18T23:22:43.855Z,22.08
2023-11-18T23:25:10.354Z,20.83
2023-11-18T23:27:36.943Z,19.65
2023-11-18T23:30:03.467Z,17.85
2023-11-18T23:32:30.944Z,20.98
2023-11-18T23:34:57.627Z,19.75
2023-11-18T23:37:24.180Z,21.35
2023-11-18T23:39:50.755Z,20.50
2023-11-18T23:42:17.358Z,22.73
2023-11-18T23:44:43.874Z,21.40
2023-11-18T23:47:10.392Z,17.98
2023-11-18T23:49:37.034Z,22.70
2023-11-18T23:52:03.517Z,19.63
2023-11-18T23:54:30.001Z,21.08
2023-11-18T23:56:56.664Z,22.17
2023-11-18T23:59:23.147Z,22.60
